Time;durP1;ratioP1;P1;durP2;ratioP2;P2;SDS_P1;SDS_P2;PMS_P1;PMS_P2;Temp;Humidity;BMP_temperature;BMP_pressure;BME280_temperature;BME280_humidity;BME280_pressure;Samples;Min_cycle;Max_cycle;Signal;HPM_P1;HPM_P2
2021/06/05 00:02:07;;;;;;;75.47;54.25;;;17.70;99.90;;;;;;6269475;22;20012;-58
2021/06/05 00:04:40;;;;;;;69.45;53.33;;;17.70;99.90;;;;;;6269180;22;20798;-60
2021/06/05 00:07:15;;;;;;;78.07;52.50;;;17.70;99.90;;;;;;6268410;22;20126;-58
2021/06/05 00:09:49;;;;;;;73.43;53.40;;;17.70;99.90;;;;;;6268616;22;20356;-54
2021/06/05 00:12:24;;;;;;;75.68;56.33;;;17.70;99.90;;;;;;6269342;22;20038;-58
2021/06/05 00:14:56;;;;;;;74.65;51.75;;;17.60;99.90;;;;;;6269348;22;20098;-58
2021/06/05 00:17:31;;;;;;;73.13;51.80;;;17.60;99.90;;;;;;6278484;22;20015;-57
2021/06/05 00:20:01;;;;;;;71.75;51.75;;;17.60;99.90;;;;;;6269692;22;20020;-61
2021/06/05 00:22:31;;;;;;;66.88;49.88;;;17.60;99.90;;;;;;6269831;22;20095;-59
2021/06/05 00:24:58;;;;;;;79.20;52.38;;;17.50;99.90;;;;;;6242448;22;20019;-59
2021/06/05 00:27:26;;;;;;;79.90;56.05;;;17.60;99.90;;;;;;6279423;22;20040;-54
2021/06/05 00:30:03;;;;;;;87.75;56.95;;;17.50;99.90;;;;;;6268321;22;20020;-58
2021/06/05 00:32:30;;;;;;;90.13;56.65;;;17.50;99.90;;;;;;6240651;22;20015;-58
2021/06/05 00:35:01;;;;;;;97.28;58.40;;;17.40;99.90;;;;;;6269460;22;20371;-57
2021/06/05 00:37:30;;;;;;;85.90;57.57;;;17.40;99.90;;;;;;6278108;22;20019;-57
2021/06/05 00:39:56;;;;;;;100.45;58.72;;;17.40;99.90;;;;;;6267313;22;20805;-55
2021/06/05 00:42:23;;;;;;;96.45;59.38;;;17.30;99.90;;;;;;6267947;22;20039;-57
2021/06/05 00:44:51;;;;;;;100.55;60.40;;;17.20;99.90;;;;;;6268425;22;20153;-58
2021/06/05 00:47:22;;;;;;;104.03;59.17;;;17.20;99.90;;;;;;6215342;22;20034;-58
2021/06/05 00:49:52;;;;;;;95.43;57.25;;;17.20;99.90;;;;;;6240230;22;20026;-56
2021/06/05 00:52:23;;;;;;;91.10;57.13;;;17.20;99.90;;;;;;6240891;22;20015;-57
2021/06/05 00:54:54;;;;;;;96.88;58.28;;;17.20;99.90;;;;;;6267785;22;20019;-58
2021/06/05 00:57:21;;;;;;;99.15;57.80;;;17.20;99.90;;;;;;6239498;22;20518;-55
2021/06/05 00:59:52;;;;;;;100.68;57.05;;;17.20;99.90;;;;;;6251571;22;20016;-57
2021/06/05 01:02:18;;;;;;;93.25;55.58;;;17.20;99.90;;;;;;6240031;22;20034;-59
2021/06/05 01:04:45;;;;;;;90.70;55.05;;;17.00;99.90;;;;;;6240393;22;20024;-57
2021/06/05 01:07:30;;;;;;;88.28;55.75;;;17.10;99.90;;;;;;6237990;22;20021;-57
2021/06/05 01:10:09;;;;;;;88.05;54.30;;;17.00;99.90;;;;;;6241074;22;20054;-58
2021/06/05 01:12:54;;;;;;;89.75;53.25;;;17.00;99.90;;;;;;6267560;22;20020;-55
2021/06/05 01:15:39;;;;;;;81.07;51.22;;;17.00;99.90;;;;;;6240231;22;20043;-57
2021/06/05 01:18:52;;;;;;;83.00;51.17;;;17.10;99.90;;;;;;6238842;22;20026;-57
2021/06/05 01:21:41;;;;;;;83.07;51.28;;;17.10;99.90;;;;;;6239138;22;20027;-52
2021/06/05 01:24:29;;;;;;;91.75;53.50;;;17.00;99.90;;;;;;6240551;22;20027;-58
2021/06/05 01:27:06;;;;;;;82.40;51.60;;;17.00;99.90;;;;;;6267587;22;20463;-56
2021/06/05 01:29:35;;;;;;;89.18;53.17;;;17.00;99.90;;;;;;6267382;22;20016;-58
2021/06/05 01:32:14;;;;;;;82.75;51.22;;;17.00;99.90;;;;;;6240345;22;20418;-57
2021/06/05 01:34:51;;;;;;;94.10;53.20;;;17.00;99.90;;;;;;6240866;22;20022;-55
2021/06/05 01:37:29;;;;;;;92.82;54.65;;;17.00;99.90;;;;;;6269227;22;20011;-54
2021/06/05 01:40:11;;;;;;;90.70;54.13;;;16.90;99.90;;;;;;6278189;22;20043;-58
2021/06/05 01:42:40;;;;;;;89.07;55.30;;;16.90;99.90;;;;;;6239828;22;20603;-58
2021/06/05 01:45:19;;;;;;;85.95;53.67;;;16.80;99.90;;;;;;6249877;22;20038;-59
2021/06/05 01:47:51;;;;;;;88.55;53.53;;;16.90;99.90;;;;;;6239696;22;20028;-59
2021/06/05 01:50:23;;;;;;;91.85;54.60;;;16.80;99.90;;;;;;6240634;22;20026;-58
2021/06/05 01:52:51;;;;;;;;;;;16.80;99.90;;;;;;6241593;22;20024;-56
2021/06/05 01:55:35;;;;;;;89.20;54.30;;;16.80;99.90;;;;;;6240548;22;19950;-58
2021/06/05 01:58:15;;;;;;;82.13;54.28;;;16.90;99.90;;;;;;6240942;22;20027;-51
2021/06/05 02:00:58;;;;;;;82.43;52.53;;;16.90;99.90;;;;;;6240910;22;20015;-57
2021/06/05 02:03:35;;;;;;;81.15;51.83;;;16.90;99.90;;;;;;6250214;22;20476;-53
2021/06/05 02:06:25;;;;;;;80.07;52.25;;;16.80;99.90;;;;;;6240842;22;20012;-58
2021/06/05 02:08:57;;;;;;;86.47;55.55;;;16.90;99.90;;;;;;6249364;22;20683;-55
2021/06/05 02:11:30;;;;;;;86.85;54.13;;;16.90;99.90;;;;;;6267633;22;20142;-57
2021/06/05 02:14:26;;;;;;;83.47;53.40;;;16.90;99.90;;;;;;6251067;22;20082;-58
2021/06/05 02:16:59;;;;;;;87.72;54.25;;;16.90;99.90;;;;;;6090097;23;20018;-58
2021/06/05 02:19:37;;;;;;;94.00;55.83;;;16.90;99.90;;;;;;6088795;23;20029;-58
2021/06/05 02:22:32;;;;;;;87.85;54.00;;;16.90;99.90;;;;;;6092976;23;20276;-57
2021/06/05 02:25:06;;;;;;;86.00;51.75;;;16.90;99.90;;;;;;6098751;23;20067;-59
2021/06/05 02:27:36;;;;;;;92.13;55.63;;;16.90;99.90;;;;;;6089270;23;20022;-57
2021/06/05 02:30:08;;;;;;;85.28;54.70;;;16.90;99.90;;;;;;6088371;23;20094;-57
2021/06/05 02:32:42;;;;;;;96.68;57.75;;;16.90;99.90;;;;;;6089318;23;20040;-56
2021/06/05 02:35:14;;;;;;;98.50;57.70;;;16.80;99.90;;;;;;6087979;23;20030;-57
2021/06/05 02:37:57;;;;;;;88.15;55.35;;;16.80;99.90;;;;;;6098310;23;20021;-58
2021/06/05 02:40:32;;;;;;;105.35;61.92;;;16.80;99.90;;;;;;6097367;23;20568;-57
2021/06/05 02:43:03;;;;;;;104.38;58.65;;;16.80;99.90;;;;;;6065441;23;20017;-57
2021/06/05 02:46:16;;;;;;;95.75;59.72;;;16.70;99.90;;;;;;6098578;23;20026;-58
2021/06/05 02:48:55;;;;;;;97.47;58.28;;;16.70;99.90;;;;;;6087572;23;20053;-58
2021/06/05 02:51:33;;;;;;;98.47;58.30;;;16.60;99.90;;;;;;6089608;23;20475;-58
2021/06/05 02:54:04;;;;;;;92.60;57.05;;;16.60;99.90;;;;;;6168258;22;20031;-57
2021/06/05 02:56:32;;;;;;;;;;;16.50;99.90;;;;;;6242918;22;20096;-51
2021/06/05 02:59:06;;;;;;;100.38;58.50;;;16.40;99.90;;;;;;6245156;22;19980;-54
2021/06/05 03:01:45;;;;;;;90.03;57.33;;;16.50;99.90;;;;;;6242563;22;20047;-58
2021/06/05 03:04:15;;;;;;;93.55;57.30;;;16.50;99.90;;;;;;6241663;22;20069;-58
2021/06/05 03:06:46;;;;;;;86.53;56.92;;;16.50;99.90;;;;;;6269113;22;20567;-57
2021/06/05 03:09:15;;;;;;;88.50;56.15;;;16.50;99.90;;;;;;6269856;22;20101;-57
2021/06/05 03:11:47;;;;;;;90.75;59.42;;;16.50;99.90;;;;;;6269382;22;20016;-54
2021/06/05 03:14:14;;;;;;;93.72;60.55;;;16.50;99.90;;;;;;6242167;22;20025;-57
2021/06/05 03:16:41;;;;;;;97.45;59.75;;;16.50;99.90;;;;;;6241242;22;20031;-57
2021/06/05 03:19:20;;;;;;;104.18;61.28;;;16.40;99.90;;;;;;6241922;22;20441;-52
2021/06/05 03:21:52;;;;;;;108.53;60.38;;;16.50;99.90;;;;;;6242834;22;20020;-55
2021/06/05 03:24:26;;;;;;;102.35;58.17;;;16.40;99.90;;;;;;6243053;22;20020;-55
2021/06/05 03:26:53;;;;;;;101.28;56.10;;;16.30;99.90;;;;;;6241627;22;20026;-54
2021/06/05 03:29:23;;;;;;;94.55;53.90;;;16.20;99.90;;;;;;6251894;22;20440;-56
2021/06/05 03:31:58;;;;;;;93.85;53.20;;;16.20;99.90;;;;;;6279767;22;20073;-55
2021/06/05 03:34:30;;;;;;;75.80;48.88;;;16.20;99.90;;;;;;6241896;22;20047;-51
2021/06/05 03:37:05;;;;;;;76.55;49.08;;;16.20;99.90;;;;;;6243402;22;20020;-54
2021/06/05 03:39:35;;;;;;;80.72;51.85;;;16.20;99.90;;;;;;6268886;22;20391;-53
2021/06/05 03:42:07;;;;;;;76.72;51.35;;;16.20;99.90;;;;;;6269454;22;20019;-54
2021/06/05 03:44:37;;;;;;;72.80;48.35;;;16.10;99.90;;;;;;6242555;22;20024;-57
2021/06/05 03:47:05;;;;;;;74.35;50.15;;;16.10;99.90;;;;;;6269436;22;20020;-57
2021/06/05 03:49:37;;;;;;;76.18;49.00;;;16.10;99.90;;;;;;6251403;22;20433;-55
2021/06/05 03:52:04;;;;;;;75.88;48.88;;;16.00;99.90;;;;;;6242365;22;20020;-58
2021/06/05 03:54:37;;;;;;;64.32;47.42;;;16.00;99.90;;;;;;6241405;22;20472;-55
2021/06/05 03:57:05;;;;;;;68.45;46.63;;;16.00;99.90;;;;;;6269238;22;20345;-58
2021/06/05 03:59:33;;;;;;;67.45;47.65;;;16.00;99.90;;;;;;6267585;22;20356;-57
2021/06/05 04:02:00;;;;;;;73.18;48.95;;;15.90;99.90;;;;;;6242471;22;20020;-57
2021/06/05 04:04:26;;;;;;;68.20;45.05;;;15.90;99.90;;;;;;6269532;22;20058;-58
2021/06/05 04:06:53;;;;;;;81.13;49.92;;;15.70;99.90;;;;;;6268403;22;20031;-52
2021/06/05 04:09:19;;;;;;;81.72;48.53;;;15.60;99.90;;;;;;6268419;22;20022;-53
2021/06/05 04:11:50;;;;;;;86.20;51.35;;;15.50;99.90;;;;;;6268301;22;20015;-56
2021/06/05 04:14:19;;;;;;;87.18;51.08;;;15.40;99.90;;;;;;6268511;22;20019;-57
2021/06/05 04:16:45;;;;;;;84.60;49.25;;;15.50;99.90;;;;;;6268677;22;20112;-54
2021/06/05 04:19:14;;;;;;;71.68;47.25;;;15.50;99.90;;;;;;6268701;22;20016;-51
2021/06/05 04:21:43;;;;;;;64.68;42.15;;;15.40;99.90;;;;;;6268758;22;20016;-55
2021/06/05 04:24:09;;;;;;;86.30;47.72;;;15.50;99.90;;;;;;6268699;22;20399;-50
2021/06/05 04:26:39;;;;;;;80.88;46.40;;;15.50;99.90;;;;;;6266944;22;20023;-54
2021/06/05 04:29:06;;;;;;;71.25;42.95;;;15.50;99.90;;;;;;6280015;22;20432;-44
2021/06/05 04:31:33;;;;;;;79.10;46.75;;;15.40;99.90;;;;;;6268683;22;20523;-47
2021/06/05 04:34:04;;;;;;;89.78;47.97;;;15.60;99.90;;;;;;6268117;22;20066;-46
2021/06/05 04:36:34;;;;;;;96.82;50.08;;;15.50;99.90;;;;;;6269644;22;20103;-45
2021/06/05 04:39:00;;;;;;;91.97;48.30;;;15.50;99.90;;;;;;6268644;22;20090;-46
2021/06/05 04:41:30;;;;;;;68.93;41.78;;;15.60;99.90;;;;;;6226454;22;20022;-48
2021/06/05 04:44:01;;;;;;;102.03;46.63;;;15.50;99.90;;;;;;6240991;22;20099;-45
2021/06/05 04:46:29;;;;;;;85.95;46.03;;;15.60;99.90;;;;;;6268250;22;20058;-47
2021/06/05 04:48:58;;;;;;;67.00;40.00;;;15.60;99.90;;;;;;6278695;22;20038;-46
2021/06/05 04:51:29;;;;;;;72.15;41.88;;;15.70;99.90;;;;;;6267126;22;20016;-48
2021/06/05 04:54:00;;;;;;;64.03;37.13;;;15.70;99.90;;;;;;6268206;22;20020;-46
2021/06/05 04:56:50;;;;;;;;;;;15.80;99.90;;;;;;6269607;22;20026;-45
2021/06/05 04:59:22;;;;;;;48.72;31.13;;;15.70;99.90;;;;;;6115497;23;20705;-44
2021/06/05 05:01:50;;;;;;;;;;;15.70;99.90;;;;;;6125847;23;20026;-46
2021/06/05 05:04:17;;;;;;;52.08;29.77;;;15.60;99.90;;;;;;6115214;23;20636;-44
2021/06/05 05:06:44;;;;;;;43.80;27.50;;;15.50;99.90;;;;;;6113652;23;20104;-46
2021/06/05 05:09:15;;;;;;;33.45;24.40;;;15.40;99.90;;;;;;6114964;23;20088;-45
2021/06/05 05:11:47;;;;;;;42.25;27.15;;;15.50;99.90;;;;;;6114305;23;20049;-45
2021/06/05 05:14:17;;;;;;;;;;;15.40;99.90;;;;;;6123545;23;20121;-45
2021/06/05 05:16:43;;;;;;;31.48;21.60;;;15.30;99.90;;;;;;6115272;23;19920;-47
2021/06/05 05:19:15;;;;;;;27.90;20.90;;;15.30;99.90;;;;;;6115619;23;20024;-45
2021/06/05 05:21:45;;;;;;;24.75;17.73;;;15.30;99.90;;;;;;6114983;23;20093;-44
2021/06/05 05:24:17;;;;;;;20.80;16.35;;;15.20;99.90;;;;;;6126032;23;20026;-46
2021/06/05 05:26:43;;;;;;;22.38;15.73;;;15.30;99.90;;;;;;6115894;23;20025;-43
2021/06/05 05:29:12;;;;;;;21.73;16.15;;;15.20;99.90;;;;;;6126221;23;20102;-43
2021/06/05 05:31:38;;;;;;;15.10;12.55;;;15.30;99.90;;;;;;6115133;23;20080;-43
2021/06/05 05:34:07;;;;;;;17.30;13.85;;;15.20;99.90;;;;;;6116382;23;20029;-44
2021/06/05 05:36:36;;;;;;;15.35;12.60;;;15.20;99.90;;;;;;6209915;22;20016;-43
2021/06/05 05:39:14;;;;;;;14.60;12.32;;;15.10;99.90;;;;;;6268918;22;20019;-44
2021/06/05 05:41:42;;;;;;;15.68;11.30;;;15.10;99.90;;;;;;6269047;22;20026;-45
2021/06/05 05:44:10;;;;;;;12.45;10.82;;;15.00;99.90;;;;;;6269608;22;20065;-45
2021/06/05 05:46:37;;;;;;;11.90;10.70;;;15.00;99.90;;;;;;6268414;22;20023;-46
2021/06/05 05:49:06;;;;;;;13.57;12.05;;;15.20;99.90;;;;;;6242089;22;20016;-47
2021/06/05 05:51:35;;;;;;;14.50;10.52;;;15.20;99.90;;;;;;6269048;22;20026;-45
2021/06/05 05:54:09;;;;;;;11.73;10.27;;;15.20;99.90;;;;;;6268350;22;20019;-45
2021/06/05 05:56:41;;;;;;;11.68;9.57;;;15.20;99.90;;;;;;6267523;22;20337;-48
2021/06/05 05:59:07;;;;;;;11.00;9.02;;;15.20;99.90;;;;;;6265915;22;20023;-45
2021/06/05 06:01:34;;;;;;;21.27;17.58;;;15.20;99.90;;;;;;6267222;22;20022;-45
2021/06/05 06:04:06;;;;;;;98.32;88.38;;;15.30;99.90;;;;;;6277381;22;20031;-46
2021/06/05 06:06:38;;;;;;;20.42;17.23;;;15.30;99.90;;;;;;6277043;22;20019;-46
2021/06/05 06:09:10;;;;;;;13.75;12.18;;;15.40;99.90;;;;;;6266284;22;20015;-45
2021/06/05 06:11:36;;;;;;;13.75;10.20;;;15.50;99.90;;;;;;6266138;22;20375;-47
2021/06/05 06:14:02;;;;;;;10.77;8.35;;;15.50;99.90;;;;;;6277385;22;20016;-46
2021/06/05 06:16:30;;;;;;;10.77;9.10;;;15.50;99.90;;;;;;6267735;22;20143;-42
2021/06/05 06:18:59;;;;;;;9.32;8.23;;;15.60;99.90;;;;;;6266394;22;20015;-46
2021/06/05 06:21:28;;;;;;;54.40;47.97;;;15.60;99.90;;;;;;6265806;22;20025;-46
2021/06/05 06:23:55;;;;;;;10.48;9.18;;;15.70;99.90;;;;;;6266699;22;20020;-45
2021/06/05 06:26:29;;;;;;;11.68;9.70;;;15.70;99.90;;;;;;6239955;22;20072;-44
2021/06/05 06:29:16;;;;;;;9.10;7.43;;;15.80;99.90;;;;;;6267894;22;20030;-45
2021/06/05 06:31:46;;;;;;;10.18;7.07;;;15.80;99.90;;;;;;6278279;22;20026;-45
2021/06/05 06:34:13;;;;;;;11.02;8.32;;;15.90;99.90;;;;;;6267723;22;20035;-45
2021/06/05 06:36:44;;;;;;;8.38;6.28;;;16.00;99.90;;;;;;6266951;22;20026;-45
2021/06/05 06:39:14;;;;;;;7.82;6.40;;;16.00;99.90;;;;;;6268529;22;20372;-44
2021/06/05 06:41:42;;;;;;;43.25;38.10;;;16.10;99.90;;;;;;6279750;22;20404;-46
2021/06/05 06:44:10;;;;;;;8.25;6.25;;;16.10;99.90;;;;;;6239719;22;20024;-45
2021/06/05 06:46:46;;;;;;;8.82;6.75;;;16.10;99.90;;;;;;6267196;22;20448;-48
2021/06/05 06:49:18;;;;;;;8.38;6.35;;;16.10;99.90;;;;;;6267253;22;20071;-48
2021/06/05 06:51:51;;;;;;;9.40;7.15;;;16.20;99.90;;;;;;6265184;22;20039;-47
2021/06/05 06:54:22;;;;;;;7.00;5.47;;;16.30;99.90;;;;;;6263002;22;20184;-48
2021/06/05 06:56:48;;;;;;;6.88;5.47;;;16.40;99.90;;;;;;6266040;22;20118;-51
2021/06/05 06:59:20;;;;;;;5.80;4.35;;;16.50;99.90;;;;;;6278494;22;20093;-50
2021/06/05 07:01:47;;;;;;;30.17;26.73;;;16.60;99.90;;;;;;6268503;22;20468;-46
2021/06/05 07:04:16;;;;;;;8.00;6.57;;;16.70;99.90;;;;;;6268643;22;20016;-47
2021/06/05 07:06:42;;;;;;;5.75;5.15;;;16.80;99.90;;;;;;6267768;22;20024;-45
2021/06/05 07:09:15;;;;;;;7.00;5.38;;;16.80;99.90;;;;;;6267599;22;20026;-47
2021/06/05 07:11:44;;;;;;;6.22;5.07;;;16.90;99.90;;;;;;6278353;22;20023;-47
2021/06/05 07:14:11;;;;;;;7.72;5.18;;;17.10;99.90;;;;;;6267724;22;20091;-48
2021/06/05 07:16:42;;;;;;;6.60;4.97;;;17.30;99.90;;;;;;6268035;22;20046;-47
2021/06/05 07:19:09;;;;;;;6.55;5.30;;;17.30;99.90;;;;;;6268034;22;20015;-48
2021/06/05 07:21:38;;;;;;;5.75;4.95;;;17.40;99.90;;;;;;6267966;22;20119;-52
2021/06/05 07:24:08;;;;;;;6.35;5.18;;;17.50;99.90;;;;;;6250134;22;20024;-48
2021/06/05 07:26:40;;;;;;;5.90;4.78;;;17.60;99.90;;;;;;6268646;22;20024;-48
2021/06/05 07:29:15;;;;;;;6.05;5.28;;;17.60;99.90;;;;;;6267045;22;20020;-47
2021/06/05 07:31:50;;;;;;;7.00;6.05;;;17.60;99.90;;;;;;6267452;22;20073;-49
2021/06/05 07:34:21;;;;;;;124.60;111.88;;;17.60;99.90;;;;;;6239063;22;20099;-53
2021/06/05 07:36:53;;;;;;;11.98;10.50;;;17.60;99.90;;;;;;6267365;22;20331;-48
2021/06/05 07:39:27;;;;;;;19.95;17.95;;;17.60;99.90;;;;;;6267533;22;20069;-47
2021/06/05 07:41:55;;;;;;;17.83;16.00;;;17.70;99.90;;;;;;6268841;22;20444;-49
2021/06/05 07:44:22;;;;;;;12.75;11.55;;;17.90;99.90;;;;;;6279455;22;20457;-51
2021/06/05 07:46:56;;;;;;;12.73;11.02;;;17.90;99.90;;;;;;6270350;22;20039;-51
2021/06/05 07:49:28;;;;;;;9.00;8.10;;;18.20;99.90;;;;;;6279975;22;20359;-46
2021/06/05 07:51:59;;;;;;;11.55;10.35;;;18.30;99.90;;;;;;6268908;22;20016;-51
2021/06/05 07:54:32;;;;;;;10.07;9.07;;;18.60;99.90;;;;;;6269051;22;20065;-48
2021/06/05 07:57:06;;;;;;;10.52;8.82;;;18.60;99.90;;;;;;6269786;22;20020;-45
2021/06/05 07:59:37;;;;;;;10.02;9.02;;;18.60;99.90;;;;;;6241423;22;20162;-45
2021/06/05 08:02:07;;;;;;;11.07;10.07;;;18.60;99.90;;;;;;6241591;22;20102;-48
2021/06/05 08:04:38;;;;;;;11.40;10.25;;;18.60;99.90;;;;;;6279087;22;20019;-47
2021/06/05 08:07:08;;;;;;;11.70;10.70;;;18.90;99.90;;;;;;6278751;22;20021;-53
2021/06/05 08:09:40;;;;;;;50.80;45.85;;;19.40;99.90;;;;;;6269275;22;20020;-51
2021/06/05 08:12:09;;;;;;;14.70;13.30;;;19.90;99.90;;;;;;6269400;22;20027;-52
2021/06/05 08:14:38;;;;;;;22.20;20.20;;;20.20;99.90;;;;;;6279099;22;20023;-51
2021/06/05 08:17:07;;;;;;;10.88;9.88;;;20.50;99.90;;;;;;6280123;22;20020;-48
2021/06/05 08:19:37;;;;;;;10.82;9.75;;;20.90;99.90;;;;;;6269921;22;20166;-49
2021/06/05 08:22:07;;;;;;;11.30;10.25;;;21.40;99.90;;;;;;6269248;22;20019;-48
2021/06/05 08:24:34;;;;;;;10.23;9.32;;;21.90;99.90;;;;;;6279111;22;20420;-49
2021/06/05 08:27:00;;;;;;;16.05;14.50;;;22.10;99.90;;;;;;6268533;22;20022;-47
2021/06/05 08:29:30;;;;;;;27.95;25.33;;;21.90;99.90;;;;;;6268668;22;20022;-49
2021/06/05 08:31:57;;;;;;;11.50;10.50;;;21.80;99.90;;;;;;6269803;22;20023;-46
2021/06/05 08:34:24;;;;;;;24.52;22.23;;;21.70;99.90;;;;;;6269118;22;20041;-48
2021/06/05 08:36:54;;;;;;;19.88;18.05;;;21.70;99.90;;;;;;6270133;22;20019;-47
2021/06/05 08:39:23;;;;;;;11.75;10.65;;;22.10;99.90;;;;;;6279686;22;20103;-50
2021/06/05 08:41:59;;;;;;;12.38;11.27;;;22.50;99.90;;;;;;6269416;22;20585;-46
2021/06/05 08:44:39;;;;;;;12.57;11.48;;;22.40;99.50;;;;;;6269275;22;20046;-49
2021/06/05 08:47:05;;;;;;;15.25;13.93;;;22.20;99.00;;;;;;6269699;22;20016;-47
2021/06/05 08:49:42;;;;;;;14.65;13.43;;;22.00;99.80;;;;;;6270675;22;20027;-48
2021/06/05 08:52:36;;;;;;;13.82;12.55;;;21.70;97.30;;;;;;6270960;22;20019;-48
2021/06/05 08:55:20;;;;;;;13.73;12.52;;;21.60;99.60;;;;;;6269581;22;20159;-47
2021/06/05 08:58:01;;;;;;;14.13;12.85;;;21.60;99.60;;;;;;6269739;22;20472;-48
2021/06/05 09:00:38;;;;;;;13.75;12.55;;;21.20;97.70;;;;;;6280289;22;20028;-48
2021/06/05 09:03:18;;;;;;;14.57;13.13;;;21.50;99.40;;;;;;6269016;22;20026;-49
2021/06/05 09:06:15;;;;;;;13.73;12.52;;;21.30;99.20;;;;;;6267705;22;20122;-49
2021/06/05 09:08:47;;;;;;;14.30;13.18;;;21.20;97.90;;;;;;6267331;22;20022;-50
2021/06/05 09:11:16;;;;;;;16.77;15.23;;;21.00;99.90;;;;;;6268494;22;20043;-49
2021/06/05 09:13:43;;;;;;;68.28;62.08;;;21.00;99.90;;;;;;6267619;22;20089;-51
2021/06/05 09:16:23;;;;;;;21.70;19.75;;;21.00;99.90;;;;;;6267506;22;20352;-47
2021/06/05 09:18:55;;;;;;;20.40;18.42;;;21.10;99.90;;;;;;6267811;22;20020;-46
2021/06/05 09:21:32;;;;;;;17.05;15.48;;;20.80;99.80;;;;;;6278997;22;20050;-46
2021/06/05 09:24:40;;;;;;;16.52;15.13;;;20.70;99.90;;;;;;6268216;22;20472;-46
2021/06/05 09:27:34;;;;;;;13.18;12.00;;;20.80;99.90;;;;;;6113985;23;20075;-49
2021/06/05 09:30:08;;;;;;;16.08;14.57;;;20.90;99.90;;;;;;6113039;23;20022;-46
2021/06/05 09:32:56;;;;;;;14.73;13.43;;;20.80;99.90;;;;;;6114790;23;20842;-46
2021/06/05 09:35:31;;;;;;;;;;;20.80;99.90;;;;;;6124771;23;20022;-48
2021/06/05 09:38:38;;;;;;;16.10;14.70;;;20.60;99.90;;;;;;6114940;23;19931;-46
2021/06/05 09:41:37;;;;;;;14.40;13.00;;;20.70;99.90;;;;;;6114844;23;20018;-50
2021/06/05 09:44:21;;;;;;;13.60;12.40;;;20.80;99.90;;;;;;6114590;23;20022;-48
2021/06/05 09:47:03;;;;;;;12.40;11.20;;;20.70;99.90;;;;;;6114517;23;20237;-48
2021/06/05 09:49:32;;;;;;;13.10;12.00;;;20.60;99.90;;;;;;6114643;23;20018;-45
2021/06/05 09:52:05;;;;;;;12.95;11.90;;;20.60;99.90;;;;;;6115085;23;20081;-46
2021/06/05 09:54:37;;;;;;;12.50;11.25;;;20.60;99.90;;;;;;6115148;23;20025;-46
2021/06/05 09:57:32;;;;;;;12.90;11.80;;;20.60;99.90;;;;;;6090742;23;20022;-46
2021/06/05 09:59:58;;;;;;;;;;;20.50;99.90;;;;;;6116437;23;20108;-47
2021/06/05 10:02:34;;;;;;;14.48;13.32;;;20.50;99.90;;;;;;6115801;23;19953;-48
2021/06/05 10:05:20;;;;;;;14.05;12.85;;;20.40;99.90;;;;;;6258340;22;20088;-46
2021/06/05 10:07:50;;;;;;;14.32;13.07;;;20.50;99.90;;;;;;6279565;22;20015;-49
2021/06/05 10:10:51;;;;;;;17.40;15.85;;;20.30;99.90;;;;;;6279469;22;20023;-47
2021/06/05 10:13:25;;;;;;;13.85;12.65;;;20.20;99.90;;;;;;6268918;22;20540;-46
2021/06/05 10:16:06;;;;;;;17.25;15.77;;;20.10;99.90;;;;;;6269172;22;20020;-45
2021/06/05 10:19:02;;;;;;;14.90;13.60;;;20.10;99.90;;;;;;6269963;22;20015;-46
2021/06/05 10:21:42;;;;;;;27.67;25.15;;;20.00;99.90;;;;;;6254305;22;20019;-46
2021/06/05 10:24:42;;;;;;;14.65;13.35;;;20.10;99.90;;;;;;6280232;22;20090;-49
2021/06/05 10:27:23;;;;;;;14.15;12.95;;;20.20;99.90;;;;;;6280206;22;20022;-45
2021/06/05 10:30:03;;;;;;;15.18;13.75;;;20.00;99.90;;;;;;6269816;22;20356;-46
2021/06/05 10:32:48;;;;;;;50.83;45.65;;;19.90;99.90;;;;;;6241914;22;20022;-45
2021/06/05 10:35:29;;;;;;;14.77;13.48;;;20.10;99.90;;;;;;6279522;22;20019;-46
2021/06/05 10:38:33;;;;;;;15.25;14.05;;;20.00;99.90;;;;;;6269400;22;20024;-47
2021/06/05 10:41:05;;;;;;;17.42;16.00;;;20.00;99.90;;;;;;6269212;22;20103;-44
2021/06/05 10:43:37;;;;;;;16.75;15.25;;;20.00;99.90;;;;;;6267858;22;20022;-49
2021/06/05 10:46:19;;;;;;;16.88;15.38;;;20.10;99.90;;;;;;6268331;22;20020;-46
2021/06/05 10:48:50;;;;;;;38.00;34.42;;;20.00;99.90;;;;;;6269187;22;20016;-47
2021/06/05 10:51:26;;;;;;;21.38;19.58;;;19.90;99.90;;;;;;6268968;22;20034;-48
2021/06/05 10:54:07;;;;;;;17.38;15.77;;;19.90;99.90;;;;;;6269317;22;20093;-47
2021/06/05 10:57:04;;;;;;;18.80;17.23;;;20.00;99.90;;;;;;6241735;22;20034;-46
2021/06/05 10:59:47;;;;;;;17.92;16.33;;;19.90;99.90;;;;;;6269071;22;20016;-49
2021/06/05 11:02:58;;;;;;;18.98;17.38;;;19.90;99.90;;;;;;6269542;22;20102;-45
2021/06/05 11:05:39;;;;;;;18.92;17.42;;;19.80;99.90;;;;;;6116114;23;20539;-47
2021/06/05 11:08:11;;;;;;;19.73;17.92;;;19.80;99.90;;;;;;6115955;23;20087;-45
2021/06/05 11:10:52;;;;;;;24.92;22.92;;;19.70;99.90;;;;;;6116054;23;20026;-46
2021/06/05 11:13:44;;;;;;;30.05;27.52;;;19.60;99.90;;;;;;6117517;23;20447;-46
2021/06/05 11:16:45;;;;;;;34.85;32.00;;;19.60;99.90;;;;;;6111557;23;20081;-46
2021/06/05 11:19:48;;;;;;;36.22;33.17;;;19.50;99.90;;;;;;6117423;23;20022;-49
2021/06/05 11:22:23;;;;;;;36.25;33.35;;;19.50;99.90;;;;;;6117337;23;20041;-47
2021/06/05 11:25:08;;;;;;;39.20;36.00;;;19.40;99.90;;;;;;6116973;23;20049;-46
2021/06/05 11:27:38;;;;;;;38.58;35.38;;;19.30;99.90;;;;;;6116893;23;20348;-46
2021/06/05 11:30:25;;;;;;;;;;;19.30;99.90;;;;;;6117642;23;20092;-48
2021/06/05 11:33:01;;;;;;;36.70;33.75;;;19.20;99.90;;;;;;6122043;23;19927;-47
2021/06/05 11:35:54;;;;;;;37.25;33.97;;;19.20;99.90;;;;;;6126389;23;20026;-49
2021/06/05 11:38:20;;;;;;;37.30;34.10;;;19.20;99.90;;;;;;6140714;22;20537;-46
2021/06/05 11:40:57;;;;;;;33.70;31.00;;;19.30;99.90;;;;;;6281675;22;20123;-47
2021/06/05 11:43:35;;;;;;;34.05;31.25;;;19.30;99.90;;;;;;6272551;22;20098;-47
2021/06/05 11:46:22;;;;;;;34.80;32.00;;;19.30;99.90;;;;;;6247146;22;20015;-49
2021/06/05 11:48:54;;;;;;;33.80;31.10;;;19.30;99.90;;;;;;6270806;22;20477;-47
2021/06/05 11:51:23;;;;;;;30.70;28.10;;;19.30;99.90;;;;;;6270491;22;20023;-48
2021/06/05 11:54:13;;;;;;;31.02;28.10;;;19.30;99.90;;;;;;6280862;22;20046;-47
2021/06/05 11:56:56;;;;;;;29.42;26.95;;;19.40;99.90;;;;;;6280660;22;20022;-49
2021/06/05 11:59:25;;;;;;;28.23;25.73;;;19.30;99.90;;;;;;6270475;22;20019;-48
2021/06/05 12:02:11;;;;;;;28.58;26.00;;;19.40;99.90;;;;;;6270276;22;20472;-48
2021/06/05 12:04:44;;;;;;;28.58;26.05;;;19.30;99.90;;;;;;6270422;22;20495;-51
2021/06/05 12:07:35;;;;;;;28.45;25.95;;;19.20;99.90;;;;;;6270363;22;20019;-47
2021/06/05 12:10:06;;;;;;;39.83;36.05;;;19.20;99.90;;;;;;6269934;22;20814;-45
2021/06/05 12:12:51;;;;;;;31.48;28.58;;;19.20;99.90;;;;;;6269258;22;20023;-44
2021/06/05 12:15:44;;;;;;;47.17;42.67;;;19.10;99.90;;;;;;6279981;22;20034;-47
2021/06/05 12:18:32;;;;;;;31.88;29.00;;;19.10;99.90;;;;;;6267121;22;20019;-49
2021/06/05 12:21:22;;;;;;;33.80;30.67;;;19.00;99.90;;;;;;6271413;22;20042;-47
2021/06/05 12:23:52;;;;;;;34.22;30.90;;;19.00;99.90;;;;;;6271375;22;20020;-47
2021/06/05 12:26:27;;;;;;;33.00;29.95;;;19.00;99.90;;;;;;6270418;22;20026;-45
2021/06/05 12:29:18;;;;;;;33.10;29.98;;;19.10;99.90;;;;;;6271105;22;20015;-46
2021/06/05 12:31:44;;;;;;;37.58;33.92;;;19.00;99.90;;;;;;6280672;22;20026;-46
2021/06/05 12:34:25;;;;;;;34.15;30.88;;;19.10;99.90;;;;;;6270206;22;20098;-46
2021/06/05 12:37:06;;;;;;;33.47;30.37;;;19.00;99.90;;;;;;6270456;22;20043;-46
2021/06/05 12:39:50;;;;;;;34.50;31.20;;;19.00;99.90;;;;;;6243457;22;20531;-46
2021/06/05 12:42:27;;;;;;;40.45;36.58;;;19.20;99.90;;;;;;6271304;22;20065;-45
2021/06/05 12:45:04;;;;;;;32.45;29.42;;;19.30;99.90;;;;;;6270416;22;20070;-44
2021/06/05 12:47:33;;;;;;;27.95;25.35;;;19.30;99.90;;;;;;6270744;22;20047;-44
2021/06/05 12:50:10;;;;;;;27.15;24.55;;;19.40;99.90;;;;;;6271800;22;20041;-47
2021/06/05 12:52:45;;;;;;;28.42;25.73;;;19.50;99.90;;;;;;6271560;22;20095;-47
2021/06/05 12:55:18;;;;;;;25.88;23.45;;;19.50;99.90;;;;;;6281292;22;20263;-47
2021/06/05 12:57:55;;;;;;;24.05;21.75;;;19.60;99.90;;;;;;6271411;22;20086;-50
2021/06/05 13:00:24;;;;;;;23.17;21.08;;;19.70;99.90;;;;;;6280948;22;20022;-47
2021/06/05 13:02:56;;;;;;;22.30;19.98;;;19.70;99.90;;;;;;6269937;22;20026;-48
2021/06/05 13:05:31;;;;;;;23.63;21.60;;;19.80;99.90;;;;;;6269905;22;20103;-45
2021/06/05 13:08:32;;;;;;;21.80;19.50;;;19.70;99.90;;;;;;6269641;22;20103;-47
2021/06/05 13:11:00;;;;;;;23.98;21.77;;;19.70;99.90;;;;;;6267273;22;20024;-45